createdAt,value
2019-05-15T00:01:32.293Z,946.5
2019-05-15T00:04:39.517Z,946.5
2019-05-15T00:07:48.005Z,946.5
2019-05-15T00:10:54.616Z,946.6
2019-05-15T00:14:03.068Z,946.7
2019-05-15T00:17:09.499Z,946.6
2019-05-15T00:20:15.814Z,946.6
2019-05-15T00:23:24.583Z,946.6
2019-05-15T00:26:33.528Z,946.6
2019-05-15T00:29:39.691Z,946.7
2019-05-15T00:32:49.284Z,946.7
2019-05-15T00:35:55.414Z,946.6
2019-05-15T00:39:03.959Z,946.6
2019-05-15T00:42:12.737Z,946.6
2019-05-15T00:45:19.735Z,946.5
2019-05-15T00:48:25.930Z,946.5
2019-05-15T00:51:34.814Z,946.5
2019-05-15T00:54:43.432Z,946.5
2019-05-15T00:57:51.572Z,946.5
2019-05-15T01:00:59.703Z,946.5
2019-05-15T01:04:07.971Z,946.5
2019-05-15T01:07:14.346Z,946.5
2019-05-15T01:10:20.608Z,946.5
2019-05-15T01:13:29.225Z,946.4
2019-05-15T01:16:35.361Z,946.3
2019-05-15T01:19:43.910Z,946.4
2019-05-15T01:22:52.631Z,946.4
2019-05-15T01:26:00.026Z,946.4
2019-05-15T01:29:06.191Z,946.4
2019-05-15T01:32:14.609Z,946.4
2019-05-15T01:35:23.437Z,946.3
2019-05-15T01:38:29.705Z,946.3
2019-05-15T01:41:35.971Z,946.2
2019-05-15T01:44:44.233Z,946.1
2019-05-15T01:47:52.810Z,946
2019-05-15T01:50:59.791Z,946.1
2019-05-15T01:54:05.953Z,946
2019-05-15T01:57:14.671Z,946
2019-05-15T02:00:23.204Z,946
2019-05-15T02:03:30.179Z,946
2019-05-15T02:06:38.893Z,945.9
2019-05-15T02:09:45.259Z,945.8
2019-05-15T02:12:53.689Z,945.8
2019-05-15T02:16:00.159Z,945.9
2019-05-15T02:19:08.573Z,945.9
2019-05-15T02:22:15.153Z,945.8
2019-05-15T02:25:23.971Z,945.7
2019-05-15T02:28:32.491Z,945.7
2019-05-15T02:31:40.397Z,945.6
2019-05-15T02:34:49.976Z,945.7
2019-05-15T02:37:59.543Z,945.7
2019-05-15T02:41:09.481Z,945.6
2019-05-15T02:44:15.977Z,945.7
2019-05-15T02:47:28.837Z,945.6
2019-05-15T02:50:35.201Z,945.6
2019-05-15T02:53:44.541Z,945.6
2019-05-15T02:56:54.422Z,945.6
2019-05-15T03:00:03.888Z,945.6
2019-05-15T03:03:10.768Z,945.6
2019-05-15T03:06:20.318Z,945.7
2019-05-15T03:09:30.280Z,945.7
2019-05-15T03:12:40.096Z,945.8
2019-05-15T03:15:50.112Z,945.8
2019-05-15T03:19:00.538Z,945.7
2019-05-15T03:22:10.693Z,945.8
2019-05-15T03:25:20.224Z,945.9
2019-05-15T03:28:29.165Z,945.8
2019-05-15T03:32:26.984Z,945.8
2019-05-15T03:36:53.898Z,945.8
2019-05-15T03:40:00.893Z,945.8
2019-05-15T03:43:10.273Z,945.9
2019-05-15T03:46:19.655Z,945.9
2019-05-15T03:49:29.163Z,945.9
2019-05-15T03:52:35.511Z,946
2019-05-15T03:55:45.161Z,945.9
2019-05-15T03:58:54.628Z,945.9
2019-05-15T04:02:01.274Z,945.9
2019-05-15T04:05:11.144Z,946
2019-05-15T04:08:20.825Z,946
2019-05-15T04:11:30.526Z,946
2019-05-15T04:14:40.582Z,945.9
2019-05-15T04:17:50.685Z,946
2019-05-15T04:20:59.822Z,946.1
2019-05-15T04:24:09.251Z,946.1
2019-05-15T04:27:15.786Z,946.1
2019-05-15T04:30:25.329Z,946.1
2019-05-15T04:33:31.490Z,946.2
2019-05-15T04:36:45.018Z,946.1
2019-05-15T04:39:54.662Z,946.2
2019-05-15T04:43:04.215Z,946.2
2019-05-15T04:46:14.166Z,946.1
2019-05-15T04:49:24.020Z,946.1
2019-05-15T04:52:34.045Z,946.1
2019-05-15T04:55:50.174Z,946.1
2019-05-15T04:59:00.401Z,946.1
2019-05-15T05:02:32.700Z,946.1
2019-05-15T05:05:40.105Z,946.1
2019-05-15T05:08:49.505Z,946.1
2019-05-15T05:11:58.114Z,946.1
2019-05-15T05:15:04.534Z,946.2
2019-05-15T05:18:13.463Z,946.2
2019-05-15T05:21:19.734Z,946.2
2019-05-15T05:24:28.608Z,946.2
2019-05-15T05:27:34.926Z,946.3
2019-05-15T05:30:43.751Z,946.3
2019-05-15T05:33:52.468Z,946.3
2019-05-15T05:37:00.174Z,946.4
2019-05-15T05:40:08.542Z,946.3
2019-05-15T05:43:14.759Z,946.4
2019-05-15T05:46:23.352Z,946.5
2019-05-15T05:49:30.007Z,946.5
2019-05-15T05:52:38.706Z,946.5
2019-05-15T05:55:45.114Z,946.5
2019-05-15T05:58:59.818Z,946.5
2019-05-15T06:02:08.795Z,946.4
2019-05-15T06:05:15.021Z,946.5
2019-05-15T06:08:23.908Z,946.5
2019-05-15T06:11:32.700Z,946.6
2019-05-15T06:14:39.238Z,946.5
2019-05-15T06:17:47.962Z,946.5
2019-05-15T06:20:54.326Z,946.6
2019-05-15T06:24:13.439Z,946.6
2019-05-15T06:27:21.195Z,946.7
2019-05-15T06:30:31.835Z,946.7
2019-05-15T06:33:39.674Z,946.7
2019-05-15T06:36:48.385Z,946.6
2019-05-15T06:39:54.662Z,946.5
2019-05-15T06:43:03.074Z,946.6
2019-05-15T06:46:10.300Z,946.6
2019-05-15T06:49:19.091Z,946.6
2019-05-15T06:52:29.663Z,946.5
2019-05-15T06:55:38.603Z,946.5
2019-05-15T06:58:45.061Z,946.6
2019-05-15T07:01:53.684Z,946.5
2019-05-15T07:04:59.950Z,946.5
2019-05-15T07:08:08.876Z,946.6
2019-05-15T07:11:15.169Z,946.6
2019-05-15T07:14:24.077Z,946.7
2019-05-15T07:17:30.351Z,946.6
2019-05-15T07:20:38.847Z,946.6
2019-05-15T07:23:45.443Z,946.5
2019-05-15T07:26:54.566Z,946.6
2019-05-15T07:30:03.987Z,946.6
2019-05-15T07:33:12.198Z,946.5
2019-05-15T07:36:20.584Z,946.6
2019-05-15T07:39:29.424Z,946.6
2019-05-15T07:42:38.305Z,946.5
2019-05-15T07:45:55.683Z,946.5
2019-05-15T07:49:04.454Z,946.4
2019-05-15T07:52:13.375Z,946.4
2019-05-15T07:55:19.727Z,946.5
2019-05-15T07:58:28.309Z,946.5
2019-05-15T08:01:34.531Z,946.5
2019-05-15T08:04:43.555Z,946.5
2019-05-15T08:07:50.339Z,946.6
2019-05-15T08:10:59.088Z,946.5
2019-05-15T08:14:31.485Z,946.5
2019-05-15T08:18:12.654Z,946.5
2019-05-15T08:21:19.815Z,946.5
2019-05-15T08:24:29.527Z,946.5
2019-05-15T08:27:38.803Z,946.5
2019-05-15T08:30:45.293Z,946.4
2019-05-15T08:33:54.396Z,946.5
2019-05-15T08:37:23.190Z,946.5
2019-05-15T08:40:29.639Z,946.5
2019-05-15T08:43:37.835Z,946.5
2019-05-15T08:46:47.363Z,946.5
2019-05-15T08:49:54.115Z,946.4
2019-05-15T08:53:00.391Z,946.5
2019-05-15T08:56:09.036Z,946.6
2019-05-15T08:59:15.253Z,946.4
2019-05-15T09:02:24.293Z,946.5
2019-05-15T09:05:33.117Z,946.6
2019-05-15T09:08:40.452Z,946.5
2019-05-15T09:11:49.495Z,946.5
2019-05-15T09:14:58.076Z,946.4
2019-05-15T09:18:19.856Z,946.6
2019-05-15T09:21:28.806Z,946.6
2019-05-15T09:24:34.992Z,946.6
2019-05-15T09:27:43.599Z,946.5
2019-05-15T09:30:49.866Z,946.5
2019-05-15T09:33:58.463Z,946.6
2019-05-15T09:37:04.969Z,946.6
2019-05-15T09:40:13.459Z,946.5
2019-05-15T09:43:19.646Z,946.5
2019-05-15T09:46:25.916Z,946.4
2019-05-15T09:49:34.650Z,946.4
2019-05-15T09:52:43.464Z,946.4
2019-05-15T09:55:50.859Z,946.4
2019-05-15T09:58:59.377Z,946.5
2019-05-15T10:02:05.508Z,946.4
2019-05-15T10:05:14.092Z,946.5
2019-05-15T10:08:22.682Z,946.5
2019-05-15T10:11:30.194Z,946.5
2019-05-15T10:14:39.067Z,946.3
2019-05-15T10:17:45.387Z,946.3
2019-05-15T10:20:58.566Z,946.3
2019-05-15T10:24:04.777Z,946.2
2019-05-15T10:27:13.909Z,946.2
2019-05-15T10:30:22.531Z,946.3
2019-05-15T10:33:30.839Z,946.3
2019-05-15T10:36:39.204Z,946.2
2019-05-15T10:39:45.339Z,946
2019-05-15T10:43:00.028Z,946.1
2019-05-15T10:46:13.769Z,946.1
2019-05-15T10:49:22.614Z,946
2019-05-15T10:52:29.941Z,946
2019-05-15T10:55:39.324Z,946
2019-05-15T10:58:49.948Z,946
2019-05-15T11:01:58.897Z,946
2019-05-15T11:05:05.353Z,945.9
2019-05-15T11:08:14.792Z,946
2019-05-15T11:11:23.727Z,946
2019-05-15T11:14:30.013Z,945.9
2019-05-15T11:17:38.987Z,945.9
2019-05-15T11:20:45.227Z,945.9
2019-05-15T11:23:54.269Z,945.8
2019-05-15T11:27:03.923Z,945.8
2019-05-15T11:30:14.228Z,945.7
2019-05-15T11:33:23.465Z,945.6
2019-05-15T11:36:30.143Z,945.6
2019-05-15T11:39:44.473Z,945.6
2019-05-15T11:42:53.248Z,945.7
2019-05-15T11:46:00.104Z,945.6
2019-05-15T11:49:08.904Z,945.6
2019-05-15T11:52:18.576Z,945.6
2019-05-15T11:55:25.152Z,945.6
2019-05-15T11:58:34.190Z,945.6
2019-05-15T12:01:40.455Z,945.6
2019-05-15T12:04:46.635Z,945.5
2019-05-15T12:07:52.880Z,945.5
2019-05-15T12:11:00.482Z,945.6
2019-05-15T12:14:09.038Z,945.5
2019-05-15T12:17:18.799Z,945.5
2019-05-15T12:20:25.075Z,945.6
2019-05-15T12:23:34.089Z,945.7
2019-05-15T12:26:43.077Z,945.7
2019-05-15T12:29:50.366Z,945.8
2019-05-15T12:32:59.721Z,945.7
2019-05-15T12:36:10.125Z,945.7
2019-05-15T12:39:22.932Z,945.7
2019-05-15T13:02:50.322Z,945.7
2019-05-15T13:05:56.490Z,945.8
2019-05-15T13:09:02.705Z,945.8
2019-05-15T13:12:09.801Z,945.8
2019-05-15T13:15:18.736Z,945.7
2019-05-15T13:18:25.201Z,945.8
2019-05-15T13:21:33.666Z,945.7
2019-05-15T13:24:42.548Z,945.6
2019-05-15T13:27:50.030Z,945.6
2019-05-15T13:31:00.907Z,945.8
2019-05-15T13:34:09.425Z,946
2019-05-15T13:37:31.515Z,945.9
2019-05-15T13:40:43.304Z,945.9
2019-05-15T13:43:51.293Z,946
2019-05-15T13:46:59.384Z,946.1
2019-05-15T13:50:07.768Z,946.1
2019-05-15T13:53:13.982Z,946.2
2019-05-15T13:56:20.239Z,946.2
2019-05-15T13:59:29.644Z,946.1
2019-05-15T14:02:35.829Z,945.9
2019-05-15T14:05:48.847Z,945.9
2019-05-15T14:08:57.943Z,945.9
2019-05-15T14:12:04.325Z,946
2019-05-15T14:15:17.483Z,945.9
2019-05-15T14:18:23.651Z,945.8
2019-05-15T14:21:29.944Z,945.8
2019-05-15T14:24:38.795Z,945.7
2019-05-15T14:27:45.009Z,945.6
2019-05-15T14:30:54.503Z,945.7
2019-05-15T14:34:03.378Z,945.6
2019-05-15T14:37:10.054Z,945.6
2019-05-15T14:40:18.321Z,945.6
2019-05-15T14:43:24.489Z,945.6
2019-05-15T14:46:30.624Z,945.7
2019-05-15T14:49:45.803Z,945.7
2019-05-15T14:52:55.014Z,945.6
2019-05-15T14:56:03.631Z,945.6
2019-05-15T14:59:12.961Z,945.5
2019-05-15T15:02:20.311Z,945.6
2019-05-15T15:05:26.637Z,945.7
2019-05-15T15:08:34.028Z,945.8
2019-05-15T15:11:40.292Z,945.9
2019-05-15T15:14:49.164Z,945.9
2019-05-15T15:17:58.130Z,945.8
2019-05-15T15:21:09.174Z,945.7
2019-05-15T15:24:15.313Z,945.7
2019-05-15T15:27:23.957Z,945.6
2019-05-15T15:30:32.992Z,945.7
2019-05-15T15:33:42.793Z,945.7
2019-05-15T15:36:49.673Z,945.7
2019-05-15T15:39:56.042Z,945.7
2019-05-15T15:43:04.357Z,945.8
2019-05-15T15:46:11.784Z,945.8
2019-05-15T15:49:18.255Z,945.9
2019-05-15T15:52:24.844Z,945.8
2019-05-15T15:55:33.757Z,945.7
2019-05-15T15:58:43.011Z,945.7
2019-05-15T16:01:50.761Z,945.7
2019-05-15T16:04:59.539Z,945.6
2019-05-15T16:08:08.243Z,945.8
2019-05-15T16:11:14.663Z,945.9
2019-05-15T16:14:23.203Z,945.8
2019-05-15T16:17:30.496Z,945.8
2019-05-15T16:20:39.252Z,945.6
2019-05-15T16:23:47.921Z,945.7
2019-05-15T16:26:54.665Z,945.7
2019-05-15T16:30:07.762Z,945.7
2019-05-15T16:33:14.422Z,945.8
2019-05-15T16:36:23.195Z,945.8
2019-05-15T16:39:29.862Z,945.7
2019-05-15T16:42:39.062Z,945.7
2019-05-15T16:45:45.291Z,945.8
2019-05-15T16:48:59.721Z,945.8
2019-05-15T16:52:05.950Z,945.7
2019-05-15T16:55:14.643Z,945.9
2019-05-15T16:58:20.844Z,946.1
2019-05-15T17:01:30.435Z,946.2
2019-05-15T17:04:39.527Z,946.2
2019-05-15T17:07:49.624Z,946.2
2019-05-15T17:10:55.758Z,946.2
2019-05-15T17:14:04.149Z,946.2
2019-05-15T17:17:13.286Z,946.2
2019-05-15T17:20:19.448Z,946.2
2019-05-15T17:23:28.325Z,946.2
2019-05-15T17:26:34.538Z,946.3
2019-05-15T17:29:40.855Z,946.3
2019-05-15T17:32:49.735Z,946.5
2019-05-15T17:35:57.631Z,946.6
2019-05-15T17:39:04.185Z,946.5
2019-05-15T17:42:10.418Z,946.5
2019-05-15T17:45:18.841Z,946.6
2019-05-15T17:48:29.313Z,946.6
2019-05-15T17:51:35.464Z,946.5
2019-05-15T17:54:48.911Z,946.5
2019-05-15T17:58:01.939Z,946.6
2019-05-15T18:01:10.103Z,946.7
2019-05-15T18:04:18.722Z,946.8
2019-05-15T18:07:24.990Z,946.8
2019-05-15T18:10:33.659Z,946.8
2019-05-15T18:13:39.880Z,946.9
2019-05-15T18:16:51.631Z,946.9
2019-05-15T18:19:59.846Z,947
2019-05-15T18:23:09.538Z,946.9
2019-05-15T18:26:18.154Z,947
2019-05-15T18:29:24.527Z,947
2019-05-15T18:32:30.842Z,947
2019-05-15T18:35:39.516Z,946.9
2019-05-15T18:38:48.063Z,947
2019-05-15T18:41:54.407Z,947
2019-05-15T18:45:03.248Z,946.9
2019-05-15T18:48:09.499Z,946.8
2019-05-15T18:51:15.926Z,946.8
2019-05-15T18:54:22.242Z,946.8
2019-05-15T18:57:30.965Z,946.8
2019-05-15T19:00:40.452Z,946.8
2019-05-15T19:03:49.538Z,946.9
2019-05-15T19:06:58.153Z,946.9
2019-05-15T19:10:04.530Z,946.9
2019-05-15T19:13:13.320Z,946.8
2019-05-15T19:16:19.875Z,946.8
2019-05-15T19:19:28.100Z,946.8
2019-05-15T19:22:34.433Z,946.8
2019-05-15T19:25:45.019Z,946.8
2019-05-15T19:28:53.395Z,946.8
2019-05-15T19:31:59.564Z,947
2019-05-15T19:35:07.614Z,947.1
2019-05-15T19:38:15.165Z,947.2
2019-05-15T19:41:23.691Z,947.2
2019-05-15T19:44:30.061Z,947.2
2019-05-15T19:47:38.589Z,947.1
2019-05-15T19:50:44.847Z,947.1
2019-05-15T19:53:53.068Z,947.1
2019-05-15T19:56:59.833Z,947.1
2019-05-15T20:00:08.285Z,947.1
2019-05-15T20:03:14.825Z,947.1
2019-05-15T20:06:23.800Z,947
2019-05-15T20:09:33.119Z,947
2019-05-15T20:12:40.893Z,947
2019-05-15T20:15:49.619Z,947
2019-05-15T20:18:57.912Z,947.2
2019-05-15T20:22:04.258Z,947.2
2019-05-15T20:25:13.036Z,947.1
2019-05-15T20:28:20.371Z,947.2
2019-05-15T20:31:29.551Z,947.1
2019-05-15T20:34:37.774Z,947
2019-05-15T20:37:44.523Z,947.1
2019-05-15T20:40:53.518Z,947
2019-05-15T20:43:59.769Z,947
2019-05-15T20:47:08.826Z,947
2019-05-15T20:50:14.960Z,946.9
2019-05-15T20:53:24.629Z,946.8
2019-05-15T20:56:30.949Z,946.8
2019-05-15T20:59:39.315Z,946.9
2019-05-15T21:02:48.351Z,946.7
2019-05-15T21:05:54.767Z,946.6
2019-05-15T21:09:08.258Z,946.5
2019-05-15T21:12:14.698Z,946.5
2019-05-15T21:15:23.346Z,946.5
2019-05-15T21:18:30.116Z,946.5
2019-05-15T21:21:38.521Z,946.5
2019-05-15T21:24:44.963Z,946.5
2019-05-15T21:27:51.206Z,946.7
2019-05-15T21:30:59.343Z,946.6
2019-05-15T21:34:08.938Z,946.6
2019-05-15T21:37:15.072Z,946.7
2019-05-15T21:40:23.826Z,946.7
2019-05-15T21:43:32.188Z,946.8
2019-05-15T21:46:38.326Z,946.7
2019-05-15T21:49:44.516Z,946.6
2019-05-15T21:52:53.241Z,946.6
2019-05-15T21:56:00.224Z,946.6
2019-05-15T21:59:09.308Z,946.8
2019-05-15T22:02:15.564Z,946.7
2019-05-15T22:05:26.000Z,946.7
2019-05-15T22:08:32.156Z,946.7
2019-05-15T22:11:40.989Z,946.6
2019-05-15T22:14:50.329Z,946.8
2019-05-15T22:17:56.588Z,946.7
2019-05-15T22:21:02.857Z,946.7
2019-05-15T22:24:10.108Z,946.7
2019-05-15T22:27:21.476Z,946.7
2019-05-15T22:30:31.327Z,946.8
2019-05-15T22:33:38.426Z,946.8
2019-05-15T22:36:45.098Z,946.7
2019-05-15T22:39:57.943Z,946.6
2019-05-15T22:43:11.453Z,946.6
2019-05-15T22:46:20.328Z,946.6
2019-05-15T22:49:29.411Z,946.5
2019-05-15T22:52:38.548Z,946.5
2019-05-15T22:55:45.066Z,946.5
2019-05-15T22:58:53.994Z,946.4
2019-05-15T23:02:00.120Z,946.4
2019-05-15T23:05:19.607Z,946.4
2019-05-15T23:08:39.524Z,946.3
2019-05-15T23:11:48.355Z,946.3
2019-05-15T23:14:54.718Z,946.2
2019-05-15T23:18:03.036Z,946.2
2019-05-15T23:21:10.587Z,946.2
2019-05-15T23:24:19.405Z,946.1
2019-05-15T23:27:25.619Z,946.2
2019-05-15T23:30:34.344Z,946.1
2019-05-15T23:33:40.504Z,946.1
2019-05-15T23:36:48.816Z,946.2
2019-05-15T23:39:54.987Z,946.2
2019-05-15T23:43:03.471Z,946.2
2019-05-15T23:46:09.680Z,946.1
2019-05-15T23:49:15.938Z,946
2019-05-15T23:52:24.147Z,946
2019-05-15T23:55:30.297Z,946
2019-05-15T23:58:38.594Z,946.1
